Terminal Aerodrome Forecast
Issued by NWS Cleveland, OH

Home | Current Version | Previous Version | Text Only | Print | Product List | Glossary On
Versions: 1 2 3 4 5 6 7 8 9 10 11 12 13 14 15 16 17 18 19 20
000
FTUS41 KCLE 280828 AAA
TAFYNG
TAF AMD
KYNG 280828Z 2808/2906 25003KT 5SM BR SCT004 OVC070
      TEMPO 2808/2812 2SM BR BKN004
     FM281200 32003KT 4SM BR SCT080 BKN250
     FM281400 03005KT P6SM SCT030
     FM281800 05008KT P6SM SCT040
     FM290000 06005KT P6SM SKC=

USA.gov is the U.S. government's official web portal to all federal, state and local government web resources and services.